Frederick E. Bouchard — WDI7451 — position and weather

sailwx.info

Track history (hours):
 
Tides and Currents Weather Stations Pressure Air Temp Water Temp Dewpoint Dewpoint Depression Visibility Wind Speed Wind Dir Waves Ship Positions

Frederick E. Bouchard

Owner: Tug Frederick E. Bouchard Corp., Melville, NY. More information available from US FCC via Universal Licensing System and Coast Guard Vessel Documentation Center.

Last reported at 2018-Feb-18 23:50 UTC. Time now 2018-Feb-19 00:01 UTC.
Position N 42°05' W 070°30'.

Length 155 m; draft 7 m.

Type: Tug. MMSI: 367728870.

Date/timePositionNaut miles runAvg speedWind from/ knotsBaromVisibWave heightAir tempDewpointWater temp
2018-Feb-18 23:50N 42°05' W 070°30'310.7
2018-Feb-18 23:31N 42°08' W 070°31'510.6
2018-Feb-18 23:00N 42°12' W 070°36'510.7
2018-Feb-18 22:31N 42°16' W 070°40'510.7
2018-Feb-18 22:00N 42°20' W 070°45'510.7
2018-Feb-18 21:30N 42°24' W 070°51'510.2
2018-Feb-18 20:58N 42°20' W 070°57'4 9.4
2018-Feb-18 20:30N 42°22' W 071°02'2 3.3
2018-Feb-18 19:59N 42°23' W 071°02'0 0.7
2018-Feb-18 19:30N 42°23' W 071°01'0 0.6
2018-Feb-18 18:53N 42°23' W 071°02'1 1.5
2018-Feb-18 18:30N 42°23' W 071°02'0 0.6
2018-Feb-18 17:50N 42°23' W 071°03'0 0.0
2018-Feb-18 15:50N 42°23' W 071°03'0 0.0
2018-Feb-18 13:56N 42°23' W 071°03'0 0.0
2018-Feb-18 09:26N 42°23' W 071°03'0 0.0
2018-Feb-18 06:35N 42°23' W 071°03'0 0.0
2018-Feb-18 06:20N 42°23' W 071°03'0 0.0
2018-Feb-18 05:23N 42°23' W 071°03'0 0.0
2018-Feb-18 04:59N 42°23' W 071°03'0 0.0
2018-Feb-18 04:29N 42°23' W 071°03'0 0.0
2018-Feb-18 03:59N 42°23' W 071°03'0 0.0
2018-Feb-18 03:29N 42°23' W 071°03'0 0.0
2018-Feb-18 02:59N 42°23' W 071°03'0 0.0
2018-Feb-18 02:23N 42°23' W 071°03'0 0.0
2018-Feb-18 01:59N 42°23' W 071°03'0 0.0
2018-Feb-18 01:29N 42°23' W 071°03'0 0.0
2018-Feb-18 00:59N 42°23' W 071°03'0 0.0
2018-Feb-18 00:29N 42°23' W 071°03'0 0.0
2018-Feb-17 23:59N 42°23' W 071°03'0 0.0
2018-Feb-17 23:23N 42°23' W 071°03'0 0.0
2018-Feb-17 22:53N 42°23' W 071°03'0 0.0
2018-Feb-17 22:29N 42°23' W 071°03'0 0.0
2018-Feb-17 22:00N 42°23' W 071°03'0 0.0
2018-Feb-17 21:30N 42°23' W 071°03'1 1.4
2018-Feb-17 20:57N 42°23' W 071°02'0 0.1
2018-Feb-17 20:30N 42°23' W 071°02'1 1.2
2018-Feb-17 20:00N 42°23' W 071°02'2 3.6
2018-Feb-17 19:30N 42°21' W 071°02'0 0.1
2018-Feb-17 19:00N 42°21' W 071°02'0 0.0
2018-Feb-17 18:29N 42°21' W 071°02'0 0.0
2018-Feb-17 17:59N 42°21' W 071°02'0 0.0
2018-Feb-17 17:29N 42°21' W 071°02'0 0.1
2018-Feb-17 16:59N 42°21' W 071°02'0 0.1
2018-Feb-17 15:47N 42°21' W 071°02'0 0.1
2018-Feb-17 15:23N 42°21' W 071°02'0 0.2
2018-Feb-17 14:59N 42°21' W 071°02'0 0.1
2018-Feb-17 14:23N 42°21' W 071°02'0 0.0
2018-Feb-17 13:20N 42°21' W 071°02'0 0.0
2018-Feb-17 12:47N 42°21' W 071°02'0 0.0
2018-Feb-17 12:23N 42°21' W 071°02'0 0.0
2018-Feb-17 11:59N 42°21' W 071°02'0 0.1
2018-Feb-17 11:26N 42°21' W 071°02'0 0.0
2018-Feb-17 10:59N 42°21' W 071°02'0 0.0
2018-Feb-17 10:29N 42°21' W 071°02'0 0.0
2018-Feb-17 09:59N 42°21' W 071°02'0 0.0
2018-Feb-17 09:14N 42°21' W 071°02'0 0.0
2018-Feb-17 08:53N 42°21' W 071°02'0 0.0
2018-Feb-17 08:29N 42°21' W 071°02'0 0.0
2018-Feb-17 07:59N 42°21' W 071°02'0 0.0
2018-Feb-17 07:29N 42°21' W 071°02'0 0.0
2018-Feb-17 06:56N 42°21' W 071°02'0 0.0
2018-Feb-17 06:26N 42°21' W 071°02'0 0.0
2018-Feb-17 05:59N 42°21' W 071°02'0 0.1
2018-Feb-17 05:23N 42°21' W 071°02'0 0.0
2018-Feb-17 04:32N 42°21' W 071°02'0 0.1
2018-Feb-17 04:29N 42°21' W 071°02'0 0.1
2018-Feb-17 03:53N 42°21' W 071°02'0 0.0
2018-Feb-17 03:14N 42°21' W 071°02'0 0.1
2018-Feb-17 02:51N 42°21' W 071°02'0 0.1
2018-Feb-17 02:30N 42°21' W 071°02'2 4.0
2018-Feb-17 02:00N 42°20' W 070°60'4 7.8
2018-Feb-17 01:30N 42°22' W 070°55'4 8.1
2018-Feb-17 01:00N 42°23' W 070°50'5 9.8
2018-Feb-17 00:30N 42°20' W 070°45'5 9.8
2018-Feb-17 00:00N 42°17' W 070°40'5 9.8
2018-Feb-16 23:30N 42°13' W 070°36'85 2.0
2018-Feb-15 05:30N 41°14' W 071°59'611.2
2018-Feb-15 04:57N 41°14' W 072°07'510.8
2018-Feb-15 04:30N 41°13' W 072°13'610.9
2018-Feb-15 04:00N 41°11' W 072°20'510.3
2018-Feb-15 03:30N 41°09' W 072°26'5 9.6
2018-Feb-15 03:00N 41°08' W 072°32'5 9.8
2018-Feb-15 02:30N 41°07' W 072°39'5 9.7
2018-Feb-15 02:00N 41°06' W 072°45'39 9.8
2018-Feb-14 21:59N 40°56' W 073°36'510.4
2018-Feb-14 21:30N 40°54' W 073°42'610.5
2018-Feb-14 20:58N 40°50' W 073°47'4 8.3
2018-Feb-14 20:30N 40°48' W 073°51'4 7.6
2018-Feb-14 20:00N 40°47' W 073°56'3 6.2
2018-Feb-14 19:30N 40°44' W 073°58'4 7.3
2018-Feb-14 19:00N 40°41' W 074°01'4 7.9
2018-Feb-14 18:30N 40°39' W 074°05'5 9.1
2018-Feb-14 17:58N 40°38' W 074°12'2 4.2
2018-Feb-14 17:30N 40°36' W 074°12'0 0.0
2018-Feb-14 16:59N 40°36' W 074°12'0 0.0
2018-Feb-14 16:30N 40°36' W 074°12'1 1.9
2018-Feb-14 16:00N 40°37' W 074°12'4 7.2
2018-Feb-14 15:30N 40°39' W 074°08'1 1.1
2018-Feb-14 15:00N 40°39' W 074°07'0 0.0
2018-Feb-14 14:30N 40°39' W 074°07'0 0.0
2018-Feb-14 14:00N 40°39' W 074°07'0 0.0
2018-Feb-14 13:30N 40°39' W 074°07'0 0.0
2018-Feb-14 13:00N 40°39' W 074°07'0 0.0
2018-Feb-14 12:30N 40°39' W 074°07'0 0.0
2018-Feb-14 12:00N 40°39' W 074°07'0 0.0
2018-Feb-14 11:27N 40°39' W 074°07'0 0.0
2018-Feb-14 11:00N 40°39' W 074°07'0 0.0
2018-Feb-14 10:30N 40°39' W 074°07'0 0.0
2018-Feb-14 10:00N 40°39' W 074°07'0 0.0
2018-Feb-14 09:27N 40°39' W 074°07'0 0.0
2018-Feb-14 09:00N 40°39' W 074°07'0 0.0
2018-Feb-14 08:27N 40°39' W 074°07'0 0.0
2018-Feb-14 08:00N 40°39' W 074°07'0 0.0
2018-Feb-14 07:30N 40°39' W 074°07'0 0.0
2018-Feb-14 07:00N 40°39' W 074°07'0 0.0
2018-Feb-14 06:27N 40°39' W 074°07'0 0.0
2018-Feb-14 05:57N 40°39' W 074°07'0 0.0
2018-Feb-14 05:30N 40°39' W 074°07'0 0.0
2018-Feb-14 05:00N 40°39' W 074°07'0 0.0
2018-Feb-14 04:30N 40°39' W 074°07'0 0.0
2018-Feb-14 04:00N 40°39' W 074°07'0 0.0
2018-Feb-14 03:30N 40°39' W 074°07'0 0.0
2018-Feb-14 03:00N 40°39' W 074°07'0 0.0
2018-Feb-14 02:30N 40°39' W 074°07'0 0.0
2018-Feb-14 02:00N 40°39' W 074°07'0 0.0
2018-Feb-14 01:30N 40°39' W 074°07'0 0.0
2018-Feb-14 01:00N 40°39' W 074°07'0 0.0
2018-Feb-14 00:30N 40°39' W 074°07'0 0.0
2018-Feb-14 00:00N 40°39' W 074°07'0 0.0
2018-Feb-13 23:30N 40°39' W 074°07'0 0.1
2018-Feb-13 22:56N 40°39' W 074°07'0 0.0
2018-Feb-13 22:29N 40°39' W 074°07'0 0.0
2018-Feb-13 21:50N 40°39' W 074°07'0 0.0
2018-Feb-13 21:29N 40°39' W 074°07'0 0.0
2018-Feb-13 20:59N 40°39' W 074°07'0 0.0
2018-Feb-13 20:26N 40°39' W 074°07'0 0.0
2018-Feb-13 19:53N 40°39' W 074°07'0 0.0
2018-Feb-13 19:23N 40°39' W 074°07'0 0.0
2018-Feb-13 18:59N 40°39' W 074°07'0 0.0
2018-Feb-13 18:29N 40°39' W 074°07'0 0.0
2018-Feb-13 17:58N 40°39' W 074°07'0 0.0
2018-Feb-13 17:30N 40°39' W 074°07'1 1.0
2018-Feb-13 17:00N 40°39' W 074°08'3 6.7
2018-Feb-13 16:30N 40°38' W 074°12'1 2.5
2018-Feb-13 16:00N 40°36' W 074°12'0 0.0
2018-Feb-13 15:29N 40°36' W 074°12'0 0.0
2018-Feb-13 15:00N 40°36' W 074°12'2 4.6
2018-Feb-13 14:30N 40°39' W 074°11'4 8.2
2018-Feb-13 14:00N 40°39' W 074°06'3 5.3
2018-Feb-13 13:30N 40°37' W 074°03'2 4.5
2018-Feb-13 13:00N 40°35' W 074°01'0 0.1
2018-Feb-13 12:24N 40°35' W 074°01'0 0.0
2018-Feb-13 12:00N 40°35' W 074°01'0 0.0
2018-Feb-13 11:30N 40°35' W 074°01'0 0.0
2018-Feb-13 11:00N 40°35' W 074°01'0 0.0
2018-Feb-13 10:30N 40°35' W 074°01'0 0.0
2018-Feb-13 09:54N 40°35' W 074°01'0 0.0
2018-Feb-13 09:30N 40°35' W 074°01'0 0.0
2018-Feb-13 09:00N 40°35' W 074°01'0 0.0
2018-Feb-13 08:30N 40°35' W 074°01'0 0.0
2018-Feb-13 08:00N 40°35' W 074°01'0 0.0
2018-Feb-13 07:30N 40°35' W 074°01'0 0.0
2018-Feb-13 07:00N 40°35' W 074°01'0 0.0
2018-Feb-13 06:30N 40°35' W 074°01'0 0.0
2018-Feb-13 06:00N 40°35' W 074°01'0 0.0
2018-Feb-13 05:30N 40°35' W 074°01'0 0.0
2018-Feb-13 05:00N 40°35' W 074°01'0 0.0
2018-Feb-13 04:30N 40°35' W 074°01'0 0.0
2018-Feb-13 04:00N 40°35' W 074°01'0 0.0
2018-Feb-13 03:30N 40°35' W 074°01'0 0.0
2018-Feb-13 03:00N 40°35' W 074°01'0 0.0
2018-Feb-13 02:30N 40°35' W 074°01'0 0.0
2018-Feb-13 02:00N 40°35' W 074°01'0 0.0
2018-Feb-13 01:30N 40°35' W 074°01'0 0.0
2018-Feb-13 01:00N 40°35' W 074°01'0 0.0
2018-Feb-13 00:24N 40°35' W 074°01'0 0.0
2018-Feb-13 00:00N 40°35' W 074°01'0 0.0
2018-Feb-12 23:30N 40°35' W 074°01'0 0.1
2018-Feb-12 23:00N 40°35' W 074°01'0 0.0
2018-Feb-12 22:30N 40°36' W 074°01'0 0.0
2018-Feb-12 21:57N 40°36' W 074°01'0 0.0
2018-Feb-12 21:27N 40°36' W 074°01'0 0.2
2018-Feb-12 21:00N 40°35' W 074°01'0 0.0
2018-Feb-12 20:30N 40°35' W 074°01'0 0.0
2018-Feb-12 19:51N 40°35' W 074°01'0 0.0
2018-Feb-12 19:30N 40°35' W 074°01'0 0.0
2018-Feb-12 19:00N 40°35' W 074°01'0 0.0
2018-Feb-12 18:30N 40°35' W 074°01'0 0.0
2018-Feb-12 18:00N 40°35' W 074°01'0 0.0
2018-Feb-12 17:30N 40°35' W 074°01'0 0.0
2018-Feb-12 17:00N 40°35' W 074°01'0 0.0
2018-Feb-12 16:30N 40°35' W 074°01'0 0.0
2018-Feb-12 16:00N 40°35' W 074°01'0 0.0
2018-Feb-12 15:15N 40°35' W 074°01'0 0.0
2018-Feb-12 14:57N 40°35' W 074°01'0 0.0
2018-Feb-12 14:27N 40°35' W 074°01'0 0.0
2018-Feb-12 14:00N 40°35' W 074°01'0 0.0
2018-Feb-12 13:30N 40°35' W 074°01'0 0.0
2018-Feb-12 13:00N 40°35' W 074°01'0 0.0
2018-Feb-12 12:30N 40°35' W 074°01'0 0.0
2018-Feb-12 11:57N 40°35' W 074°01'0 0.0
2018-Feb-12 11:30N 40°35' W 074°01'0 0.0
2018-Feb-12 11:00N 40°35' W 074°01'0 0.1
2018-Feb-12 10:30N 40°35' W 074°01'0 0.2
2018-Feb-12 10:00N 40°36' W 074°01'0 0.0
2018-Feb-12 09:27N 40°36' W 074°01'0 0.1
2018-Feb-12 09:00N 40°36' W 074°01'0 0.0
2018-Feb-12 08:30N 40°36' W 074°01'0 0.0
2018-Feb-12 08:00N 40°36' W 074°01'0 0.1
2018-Feb-12 07:30N 40°36' W 074°01'0 0.2
2018-Feb-12 07:00N 40°36' W 074°01'0 0.1
2018-Feb-12 06:30N 40°35' W 074°01'0 0.0
2018-Feb-12 06:00N 40°35' W 074°01'0 0.0
2018-Feb-12 05:30N 40°35' W 074°01'0 0.0
2018-Feb-12 05:00N 40°35' W 074°01'0 0.0
2018-Feb-12 04:30N 40°35' W 074°01'0 0.0
2018-Feb-12 04:00N 40°35' W 074°01'0 0.0
2018-Feb-12 03:30N 40°35' W 074°01'0 0.0
2018-Feb-12 03:00N 40°35' W 074°01'0 0.0
2018-Feb-12 02:30N 40°36' W 074°01'0 0.1
2018-Feb-12 02:00N 40°35' W 074°01'0 0.1
2018-Feb-12 01:30N 40°36' W 074°01'0 0.2
2018-Feb-12 00:54N 40°36' W 074°01'0 0.1
2018-Feb-12 00:30N 40°36' W 074°01'0 0.0
2018-Feb-12 00:00N 40°36' W 074°01'0 0.1
2018-Feb-11 23:30N 40°36' W 074°01'0 0.1
2018-Feb-11 23:00N 40°36' W 074°01'0 0.0
2018-Feb-11 22:27N 40°36' W 074°01'0 0.0
2018-Feb-11 22:00N 40°36' W 074°01'0 0.1
2018-Feb-11 21:30N 40°36' W 074°01'0 0.0
2018-Feb-11 21:00N 40°36' W 074°01'0 0.2
2018-Feb-11 20:30N 40°36' W 074°01'0 0.2
2018-Feb-11 19:57N 40°35' W 074°01'0 0.0
2018-Feb-11 19:30N 40°35' W 074°01'0 0.0
2018-Feb-11 19:00N 40°35' W 074°01'0 0.1
2018-Feb-11 18:30N 40°35' W 074°01'0 0.0
2018-Feb-11 17:57N 40°35' W 074°01'0 0.0
2018-Feb-11 17:30N 40°35' W 074°01'0 0.0
2018-Feb-11 17:00N 40°35' W 074°01'0 0.0
2018-Feb-11 16:30N 40°35' W 074°01'0 0.0
2018-Feb-11 16:00N 40°35' W 074°01'0 0.0
2018-Feb-11 15:27N 40°36' W 074°01'0 0.0
2018-Feb-11 15:00N 40°36' W 074°01'0 0.0
2018-Feb-11 14:30N 40°36' W 074°01'0 0.0
2018-Feb-11 14:00N 40°35' W 074°01'0 0.0
2018-Feb-11 13:30N 40°35' W 074°01'0 0.0
2018-Feb-11 12:57N 40°35' W 074°01'0 0.0
2018-Feb-11 12:30N 40°35' W 074°01'0 0.1
2018-Feb-11 12:00N 40°36' W 074°01'0 0.2
2018-Feb-11 11:30N 40°36' W 074°01'0 0.1
2018-Feb-11 11:00N 40°36' W 074°01'0 0.1
2018-Feb-11 10:30N 40°36' W 074°01'0 0.0
2018-Feb-11 09:57N 40°36' W 074°01'0 0.1
2018-Feb-11 09:30N 40°36' W 074°01'0 0.0
2018-Feb-11 09:00N 40°36' W 074°01'0 0.0
2018-Feb-11 08:30N 40°36' W 074°01'0 0.0
2018-Feb-11 08:00N 40°36' W 074°01'0 0.0
2018-Feb-11 07:30N 40°36' W 074°01'0 0.0
2018-Feb-11 07:00N 40°36' W 074°01'0 0.1
2018-Feb-11 06:30N 40°36' W 074°01'0 0.2
2018-Feb-11 06:00N 40°36' W 074°01'0 0.2
2018-Feb-11 05:30N 40°35' W 074°01'0 0.0
2018-Feb-11 05:00N 40°35' W 074°01'0 0.0
2018-Feb-11 04:30N 40°35' W 074°01'0 0.0
2018-Feb-11 04:00N 40°35' W 074°01'0 0.0
2018-Feb-11 03:30N 40°36' W 074°01'0 0.0
2018-Feb-11 03:00N 40°36' W 074°01'0 0.0
2018-Feb-11 02:30N 40°35' W 074°01'0 0.0
2018-Feb-11 02:00N 40°35' W 074°01'0 0.0
2018-Feb-11 01:30N 40°35' W 074°01'0 0.0
2018-Feb-11 01:00N 40°36' W 074°01'0 0.0
2018-Feb-11 00:30N 40°35' W 074°01'0 0.1
2018-Feb-11 00:00N 40°36' W 074°01'0 0.3
2018-Feb-10 23:30N 40°36' W 074°01'0 0.0
2018-Feb-10 23:00N 40°36' W 074°01'0 0.0
2018-Feb-10 22:30N 40°36' W 074°01'0 0.0
2018-Feb-10 22:00N 40°36' W 074°01'0 0.1
2018-Feb-10 21:27N 40°36' W 074°01'0 0.1
2018-Feb-10 21:00N 40°36' W 074°01'0 0.1
2018-Feb-10 20:30N 40°36' W 074°01'0 0.0
2018-Feb-10 20:00N 40°36' W 074°01'0 0.1
2018-Feb-10 19:30N 40°36' W 074°01'0 0.1
2018-Feb-10 18:57N 40°35' W 074°01'0 0.1
2018-Feb-10 18:30N 40°35' W 074°01'0 0.0
2018-Feb-10 18:00N 40°35' W 074°01'0 0.1
2018-Feb-10 17:30N 40°35' W 074°01'0 0.0
2018-Feb-10 17:00N 40°35' W 074°01'0 0.0
2018-Feb-10 16:30N 40°35' W 074°01'0 0.0
2018-Feb-10 16:00N 40°35' W 074°01'0 0.0
2018-Feb-10 15:30N 40°35' W 074°01'0 0.0
2018-Feb-10 15:00N 40°35' W 074°01'0 0.0
2018-Feb-10 14:30N 40°36' W 074°01'0 0.0
2018-Feb-10 14:00N 40°36' W 074°01'0 0.0
2018-Feb-10 13:30N 40°35' W 074°01'0 0.0
2018-Feb-10 12:54N 40°35' W 074°01'0 0.0
2018-Feb-10 12:30N 40°35' W 074°01'0 0.0
2018-Feb-10 12:00N 40°35' W 074°01'0 0.0
2018-Feb-10 11:30N 40°36' W 074°01'0 0.1
2018-Feb-10 11:00N 40°36' W 074°01'0 0.1
2018-Feb-10 10:30N 40°36' W 074°01'0 0.1
2018-Feb-10 10:00N 40°36' W 074°01'0 0.1
2018-Feb-10 09:30N 40°36' W 074°01'0 0.0
2018-Feb-10 09:00N 40°36' W 074°01'0 0.0
2018-Feb-10 08:30N 40°36' W 074°01'0 0.0
2018-Feb-10 08:00N 40°36' W 074°01'0 0.0
2018-Feb-10 07:30N 40°36' W 074°01'0 0.0
2018-Feb-10 07:00N 40°36' W 074°01'0 0.2
2018-Feb-10 06:27N 40°36' W 074°01'0 0.0
2018-Feb-10 06:00N 40°36' W 074°01'0 0.0
2018-Feb-10 05:30N 40°36' W 074°01'0 0.1
2018-Feb-10 04:54N 40°36' W 074°01'0 0.2
2018-Feb-10 04:30N 40°35' W 074°01'0 0.1
2018-Feb-10 04:00N 40°35' W 074°01'0 0.0
2018-Feb-10 03:30N 40°35' W 074°01'0 0.0
2018-Feb-10 02:57N 40°35' W 074°01'0 0.1
2018-Feb-10 02:30N 40°36' W 074°01'0 0.1
2018-Feb-10 02:00N 40°36' W 074°01'0 0.0
2018-Feb-10 01:30N 40°36' W 074°01'0 0.0
2018-Feb-10 01:00N 40°36' W 074°01'0 0.1
2018-Feb-10 00:30N 40°36' W 074°01'0 0.1
2018-Feb-09 23:54N 40°36' W 074°01'0 0.1
2018-Feb-09 23:30N 40°36' W 074°01'0 0.0
2018-Feb-09 23:00N 40°36' W 074°01'0 0.3
2018-Feb-09 22:45N 40°36' W 074°01'0 0.2
2018-Feb-09 22:30N 40°36' W 074°01'  
Track history (hours):
 
Tides and Currents Weather Stations Pressure Air Temp Water Temp Dewpoint Dewpoint Depression Visibility Wind Speed Wind Dir Waves Ship Positions

Frederick E. Bouchard

Owner: Tug Frederick E. Bouchard Corp., Melville, NY. More information available from US FCC via Universal Licensing System and Coast Guard Vessel Documentation Center.

Last reported at 2018-Feb-18 23:50 UTC. Time now 2018-Feb-19 00:01 UTC.
Position N 42°05' W 070°30'.

Length 155 m; draft 7 m.

Type: Tug. MMSI: 367728870.

Date/timePositionNaut miles runAvg speedWind from/ knotsBaromVisibWave heightAir tempDewpointWater temp
2018-Feb-18 23:50N 42°05' W 070°30'310.7
2018-Feb-18 23:31N 42°08' W 070°31'510.6
2018-Feb-18 23:00N 42°12' W 070°36'510.7
2018-Feb-18 22:31N 42°16' W 070°40'510.7
2018-Feb-18 22:00N 42°20' W 070°45'510.7
2018-Feb-18 21:30N 42°24' W 070°51'510.2
2018-Feb-18 20:58N 42°20' W 070°57'4 9.4
2018-Feb-18 20:30N 42°22' W 071°02'2 3.3
2018-Feb-18 19:59N 42°23' W 071°02'0 0.7
2018-Feb-18 19:30N 42°23' W 071°01'0 0.6
2018-Feb-18 18:53N 42°23' W 071°02'1 1.5
2018-Feb-18 18:30N 42°23' W 071°02'0 0.6
2018-Feb-18 17:50N 42°23' W 071°03'0 0.0
2018-Feb-18 15:50N 42°23' W 071°03'0 0.0
2018-Feb-18 13:56N 42°23' W 071°03'0 0.0
2018-Feb-18 09:26N 42°23' W 071°03'0 0.0
2018-Feb-18 06:35N 42°23' W 071°03'0 0.0
2018-Feb-18 06:20N 42°23' W 071°03'0 0.0
2018-Feb-18 05:23N 42°23' W 071°03'0 0.0
2018-Feb-18 04:59N 42°23' W 071°03'0 0.0
2018-Feb-18 04:29N 42°23' W 071°03'0 0.0
2018-Feb-18 03:59N 42°23' W 071°03'0 0.0
2018-Feb-18 03:29N 42°23' W 071°03'0 0.0
2018-Feb-18 02:59N 42°23' W 071°03'0 0.0
2018-Feb-18 02:23N 42°23' W 071°03'0 0.0
2018-Feb-18 01:59N 42°23' W 071°03'0 0.0
2018-Feb-18 01:29N 42°23' W 071°03'0 0.0
2018-Feb-18 00:59N 42°23' W 071°03'0 0.0
2018-Feb-18 00:29N 42°23' W 071°03'0 0.0
2018-Feb-17 23:59N 42°23' W 071°03'0 0.0
2018-Feb-17 23:23N 42°23' W 071°03'0 0.0
2018-Feb-17 22:53N 42°23' W 071°03'0 0.0
2018-Feb-17 22:29N 42°23' W 071°03'0 0.0
2018-Feb-17 22:00N 42°23' W 071°03'0 0.0
2018-Feb-17 21:30N 42°23' W 071°03'1 1.4
2018-Feb-17 20:57N 42°23' W 071°02'0 0.1
2018-Feb-17 20:30N 42°23' W 071°02'1 1.2
2018-Feb-17 20:00N 42°23' W 071°02'2 3.6
2018-Feb-17 19:30N 42°21' W 071°02'0 0.1
2018-Feb-17 19:00N 42°21' W 071°02'0 0.0
2018-Feb-17 18:29N 42°21' W 071°02'0 0.0
2018-Feb-17 17:59N 42°21' W 071°02'0 0.0
2018-Feb-17 17:29N 42°21' W 071°02'0 0.1
2018-Feb-17 16:59N 42°21' W 071°02'0 0.1
2018-Feb-17 15:47N 42°21' W 071°02'0 0.1
2018-Feb-17 15:23N 42°21' W 071°02'0 0.2
2018-Feb-17 14:59N 42°21' W 071°02'0 0.1
2018-Feb-17 14:23N 42°21' W 071°02'0 0.0
2018-Feb-17 13:20N 42°21' W 071°02'0 0.0
2018-Feb-17 12:47N 42°21' W 071°02'0 0.0
2018-Feb-17 12:23N 42°21' W 071°02'0 0.0
2018-Feb-17 11:59N 42°21' W 071°02'0 0.1
2018-Feb-17 11:26N 42°21' W 071°02'0 0.0
2018-Feb-17 10:59N 42°21' W 071°02'0 0.0
2018-Feb-17 10:29N 42°21' W 071°02'0 0.0
2018-Feb-17 09:59N 42°21' W 071°02'0 0.0
2018-Feb-17 09:14N 42°21' W 071°02'0 0.0
2018-Feb-17 08:53N 42°21' W 071°02'0 0.0
2018-Feb-17 08:29N 42°21' W 071°02'0 0.0
2018-Feb-17 07:59N 42°21' W 071°02'0 0.0
2018-Feb-17 07:29N 42°21' W 071°02'0 0.0
2018-Feb-17 06:56N 42°21' W 071°02'0 0.0
2018-Feb-17 06:26N 42°21' W 071°02'0 0.0
2018-Feb-17 05:59N 42°21' W 071°02'0 0.1
2018-Feb-17 05:23N 42°21' W 071°02'0 0.0
2018-Feb-17 04:32N 42°21' W 071°02'0 0.1
2018-Feb-17 04:29N 42°21' W 071°02'0 0.1
2018-Feb-17 03:53N 42°21' W 071°02'0 0.0
2018-Feb-17 03:14N 42°21' W 071°02'0 0.1
2018-Feb-17 02:51N 42°21' W 071°02'0 0.1
2018-Feb-17 02:30N 42°21' W 071°02'2 4.0
2018-Feb-17 02:00N 42°20' W 070°60'4 7.8
2018-Feb-17 01:30N 42°22' W 070°55'4 8.1
2018-Feb-17 01:00N 42°23' W 070°50'5 9.8
2018-Feb-17 00:30N 42°20' W 070°45'5 9.8
2018-Feb-17 00:00N 42°17' W 070°40'5 9.8
2018-Feb-16 23:30N 42°13' W 070°36'85 2.0
2018-Feb-15 05:30N 41°14' W 071°59'611.2
2018-Feb-15 04:57N 41°14' W 072°07'510.8
2018-Feb-15 04:30N 41°13' W 072°13'610.9
2018-Feb-15 04:00N 41°11' W 072°20'510.3
2018-Feb-15 03:30N 41°09' W 072°26'5 9.6
2018-Feb-15 03:00N 41°08' W 072°32'5 9.8
2018-Feb-15 02:30N 41°07' W 072°39'5 9.7
2018-Feb-15 02:00N 41°06' W 072°45'39 9.8
2018-Feb-14 21:59N 40°56' W 073°36'510.4
2018-Feb-14 21:30N 40°54' W 073°42'610.5
2018-Feb-14 20:58N 40°50' W 073°47'4 8.3
2018-Feb-14 20:30N 40°48' W 073°51'4 7.6
2018-Feb-14 20:00N 40°47' W 073°56'3 6.2
2018-Feb-14 19:30N 40°44' W 073°58'4 7.3
2018-Feb-14 19:00N 40°41' W 074°01'4 7.9
2018-Feb-14 18:30N 40°39' W 074°05'5 9.1
2018-Feb-14 17:58N 40°38' W 074°12'2 4.2
2018-Feb-14 17:30N 40°36' W 074°12'0 0.0
2018-Feb-14 16:59N 40°36' W 074°12'0 0.0
2018-Feb-14 16:30N 40°36' W 074°12'1 1.9
2018-Feb-14 16:00N 40°37' W 074°12'4 7.2
2018-Feb-14 15:30N 40°39' W 074°08'1 1.1
2018-Feb-14 15:00N 40°39' W 074°07'0 0.0
2018-Feb-14 14:30N 40°39' W 074°07'0 0.0
2018-Feb-14 14:00N 40°39' W 074°07'0 0.0
2018-Feb-14 13:30N 40°39' W 074°07'0 0.0
2018-Feb-14 13:00N 40°39' W 074°07'0 0.0
2018-Feb-14 12:30N 40°39' W 074°07'0 0.0
2018-Feb-14 12:00N 40°39' W 074°07'0 0.0
2018-Feb-14 11:27N 40°39' W 074°07'0 0.0
2018-Feb-14 11:00N 40°39' W 074°07'0 0.0
2018-Feb-14 10:30N 40°39' W 074°07'0 0.0
2018-Feb-14 10:00N 40°39' W 074°07'0 0.0
2018-Feb-14 09:27N 40°39' W 074°07'0 0.0
2018-Feb-14 09:00N 40°39' W 074°07'0 0.0
2018-Feb-14 08:27N 40°39' W 074°07'0 0.0
2018-Feb-14 08:00N 40°39' W 074°07'0 0.0
2018-Feb-14 07:30N 40°39' W 074°07'0 0.0
2018-Feb-14 07:00N 40°39' W 074°07'0 0.0
2018-Feb-14 06:27N 40°39' W 074°07'0 0.0
2018-Feb-14 05:57N 40°39' W 074°07'0 0.0
2018-Feb-14 05:30N 40°39' W 074°07'0 0.0
2018-Feb-14 05:00N 40°39' W 074°07'0 0.0
2018-Feb-14 04:30N 40°39' W 074°07'0 0.0
2018-Feb-14 04:00N 40°39' W 074°07'0 0.0
2018-Feb-14 03:30N 40°39' W 074°07'0 0.0
2018-Feb-14 03:00N 40°39' W 074°07'0 0.0
2018-Feb-14 02:30N 40°39' W 074°07'0 0.0
2018-Feb-14 02:00N 40°39' W 074°07'0 0.0
2018-Feb-14 01:30N 40°39' W 074°07'0 0.0
2018-Feb-14 01:00N 40°39' W 074°07'0 0.0
2018-Feb-14 00:30N 40°39' W 074°07'0 0.0
2018-Feb-14 00:00N 40°39' W 074°07'0 0.0
2018-Feb-13 23:30N 40°39' W 074°07'0 0.1
2018-Feb-13 22:56N 40°39' W 074°07'0 0.0
2018-Feb-13 22:29N 40°39' W 074°07'0 0.0
2018-Feb-13 21:50N 40°39' W 074°07'0 0.0
2018-Feb-13 21:29N 40°39' W 074°07'0 0.0
2018-Feb-13 20:59N 40°39' W 074°07'0 0.0
2018-Feb-13 20:26N 40°39' W 074°07'0 0.0
2018-Feb-13 19:53N 40°39' W 074°07'0 0.0
2018-Feb-13 19:23N 40°39' W 074°07'0 0.0
2018-Feb-13 18:59N 40°39' W 074°07'0 0.0
2018-Feb-13 18:29N 40°39' W 074°07'0 0.0
2018-Feb-13 17:58N 40°39' W 074°07'0 0.0
2018-Feb-13 17:30N 40°39' W 074°07'1 1.0
2018-Feb-13 17:00N 40°39' W 074°08'3 6.7
2018-Feb-13 16:30N 40°38' W 074°12'1 2.5
2018-Feb-13 16:00N 40°36' W 074°12'0 0.0
2018-Feb-13 15:29N 40°36' W 074°12'0 0.0
2018-Feb-13 15:00N 40°36' W 074°12'2 4.6
2018-Feb-13 14:30N 40°39' W 074°11'4 8.2
2018-Feb-13 14:00N 40°39' W 074°06'3 5.3
2018-Feb-13 13:30N 40°37' W 074°03'2 4.5
2018-Feb-13 13:00N 40°35' W 074°01'0 0.1
2018-Feb-13 12:24N 40°35' W 074°01'0 0.0
2018-Feb-13 12:00N 40°35' W 074°01'0 0.0
2018-Feb-13 11:30N 40°35' W 074°01'0 0.0
2018-Feb-13 11:00N 40°35' W 074°01'0 0.0
2018-Feb-13 10:30N 40°35' W 074°01'0 0.0
2018-Feb-13 09:54N 40°35' W 074°01'0 0.0
2018-Feb-13 09:30N 40°35' W 074°01'0 0.0
2018-Feb-13 09:00N 40°35' W 074°01'0 0.0
2018-Feb-13 08:30N 40°35' W 074°01'0 0.0
2018-Feb-13 08:00N 40°35' W 074°01'0 0.0
2018-Feb-13 07:30N 40°35' W 074°01'0 0.0
2018-Feb-13 07:00N 40°35' W 074°01'0 0.0
2018-Feb-13 06:30N 40°35' W 074°01'0 0.0
2018-Feb-13 06:00N 40°35' W 074°01'0 0.0
2018-Feb-13 05:30N 40°35' W 074°01'0 0.0
2018-Feb-13 05:00N 40°35' W 074°01'0 0.0
2018-Feb-13 04:30N 40°35' W 074°01'0 0.0
2018-Feb-13 04:00N 40°35' W 074°01'0 0.0
2018-Feb-13 03:30N 40°35' W 074°01'0 0.0
2018-Feb-13 03:00N 40°35' W 074°01'0 0.0
2018-Feb-13 02:30N 40°35' W 074°01'0 0.0
2018-Feb-13 02:00N 40°35' W 074°01'0 0.0
2018-Feb-13 01:30N 40°35' W 074°01'0 0.0
2018-Feb-13 01:00N 40°35' W 074°01'0 0.0
2018-Feb-13 00:24N 40°35' W 074°01'0 0.0
2018-Feb-13 00:00N 40°35' W 074°01'0 0.0
2018-Feb-12 23:30N 40°35' W 074°01'0 0.1
2018-Feb-12 23:00N 40°35' W 074°01'0 0.0
2018-Feb-12 22:30N 40°36' W 074°01'0 0.0
2018-Feb-12 21:57N 40°36' W 074°01'0 0.0
2018-Feb-12 21:27N 40°36' W 074°01'0 0.2
2018-Feb-12 21:00N 40°35' W 074°01'0 0.0
2018-Feb-12 20:30N 40°35' W 074°01'0 0.0
2018-Feb-12 19:51N 40°35' W 074°01'0 0.0
2018-Feb-12 19:30N 40°35' W 074°01'0 0.0
2018-Feb-12 19:00N 40°35' W 074°01'0 0.0
2018-Feb-12 18:30N 40°35' W 074°01'0 0.0
2018-Feb-12 18:00N 40°35' W 074°01'0 0.0
2018-Feb-12 17:30N 40°35' W 074°01'0 0.0
2018-Feb-12 17:00N 40°35' W 074°01'0 0.0
2018-Feb-12 16:30N 40°35' W 074°01'0 0.0
2018-Feb-12 16:00N 40°35' W 074°01'0 0.0
2018-Feb-12 15:15N 40°35' W 074°01'0 0.0
2018-Feb-12 14:57N 40°35' W 074°01'0 0.0
2018-Feb-12 14:27N 40°35' W 074°01'0 0.0
2018-Feb-12 14:00N 40°35' W 074°01'0 0.0
2018-Feb-12 13:30N 40°35' W 074°01'0 0.0
2018-Feb-12 13:00N 40°35' W 074°01'0 0.0
2018-Feb-12 12:30N 40°35' W 074°01'0 0.0
2018-Feb-12 11:57N 40°35' W 074°01'0 0.0
2018-Feb-12 11:30N 40°35' W 074°01'0 0.0
2018-Feb-12 11:00N 40°35' W 074°01'0 0.1
2018-Feb-12 10:30N 40°35' W 074°01'0 0.2
2018-Feb-12 10:00N 40°36' W 074°01'0 0.0
2018-Feb-12 09:27N 40°36' W 074°01'0 0.1
2018-Feb-12 09:00N 40°36' W 074°01'0 0.0
2018-Feb-12 08:30N 40°36' W 074°01'0 0.0
2018-Feb-12 08:00N 40°36' W 074°01'0 0.1
2018-Feb-12 07:30N 40°36' W 074°01'0 0.2
2018-Feb-12 07:00N 40°36' W 074°01'0 0.1
2018-Feb-12 06:30N 40°35' W 074°01'0 0.0
2018-Feb-12 06:00N 40°35' W 074°01'0 0.0
2018-Feb-12 05:30N 40°35' W 074°01'0 0.0
2018-Feb-12 05:00N 40°35' W 074°01'0 0.0
2018-Feb-12 04:30N 40°35' W 074°01'0 0.0
2018-Feb-12 04:00N 40°35' W 074°01'0 0.0
2018-Feb-12 03:30N 40°35' W 074°01'0 0.0
2018-Feb-12 03:00N 40°35' W 074°01'0 0.0
2018-Feb-12 02:30N 40°36' W 074°01'0 0.1
2018-Feb-12 02:00N 40°35' W 074°01'0 0.1
2018-Feb-12 01:30N 40°36' W 074°01'0 0.2
2018-Feb-12 00:54N 40°36' W 074°01'0 0.1
2018-Feb-12 00:30N 40°36' W 074°01'0 0.0
2018-Feb-12 00:00N 40°36' W 074°01'0 0.1
2018-Feb-11 23:30N 40°36' W 074°01'0 0.1
2018-Feb-11 23:00N 40°36' W 074°01'0 0.0
2018-Feb-11 22:27N 40°36' W 074°01'0 0.0
2018-Feb-11 22:00N 40°36' W 074°01'0 0.1
2018-Feb-11 21:30N 40°36' W 074°01'0 0.0
2018-Feb-11 21:00N 40°36' W 074°01'0 0.2
2018-Feb-11 20:30N 40°36' W 074°01'0 0.2
2018-Feb-11 19:57N 40°35' W 074°01'0 0.0
2018-Feb-11 19:30N 40°35' W 074°01'0 0.0
2018-Feb-11 19:00N 40°35' W 074°01'0 0.1
2018-Feb-11 18:30N 40°35' W 074°01'0 0.0
2018-Feb-11 17:57N 40°35' W 074°01'0 0.0
2018-Feb-11 17:30N 40°35' W 074°01'0 0.0
2018-Feb-11 17:00N 40°35' W 074°01'0 0.0
2018-Feb-11 16:30N 40°35' W 074°01'0 0.0
2018-Feb-11 16:00N 40°35' W 074°01'0 0.0
2018-Feb-11 15:27N 40°36' W 074°01'0 0.0
2018-Feb-11 15:00N 40°36' W 074°01'0 0.0
2018-Feb-11 14:30N 40°36' W 074°01'0 0.0
2018-Feb-11 14:00N 40°35' W 074°01'0 0.0
2018-Feb-11 13:30N 40°35' W 074°01'0 0.0
2018-Feb-11 12:57N 40°35' W 074°01'0 0.0
2018-Feb-11 12:30N 40°35' W 074°01'0 0.1
2018-Feb-11 12:00N 40°36' W 074°01'0 0.2
2018-Feb-11 11:30N 40°36' W 074°01'0 0.1
2018-Feb-11 11:00N 40°36' W 074°01'0 0.1
2018-Feb-11 10:30N 40°36' W 074°01'0 0.0
2018-Feb-11 09:57N 40°36' W 074°01'0 0.1
2018-Feb-11 09:30N 40°36' W 074°01'0 0.0
2018-Feb-11 09:00N 40°36' W 074°01'0 0.0
2018-Feb-11 08:30N 40°36' W 074°01'0 0.0
2018-Feb-11 08:00N 40°36' W 074°01'0 0.0
2018-Feb-11 07:30N 40°36' W 074°01'0 0.0
2018-Feb-11 07:00N 40°36' W 074°01'0 0.1
2018-Feb-11 06:30N 40°36' W 074°01'0 0.2
2018-Feb-11 06:00N 40°36' W 074°01'0 0.2
2018-Feb-11 05:30N 40°35' W 074°01'0 0.0
2018-Feb-11 05:00N 40°35' W 074°01'0 0.0
2018-Feb-11 04:30N 40°35' W 074°01'0 0.0
2018-Feb-11 04:00N 40°35' W 074°01'0 0.0
2018-Feb-11 03:30N 40°36' W 074°01'0 0.0
2018-Feb-11 03:00N 40°36' W 074°01'0 0.0
2018-Feb-11 02:30N 40°35' W 074°01'0 0.0
2018-Feb-11 02:00N 40°35' W 074°01'0 0.0
2018-Feb-11 01:30N 40°35' W 074°01'0 0.0
2018-Feb-11 01:00N 40°36' W 074°01'0 0.0
2018-Feb-11 00:30N 40°35' W 074°01'0 0.1
2018-Feb-11 00:00N 40°36' W 074°01'0 0.3
2018-Feb-10 23:30N 40°36' W 074°01'0 0.0
2018-Feb-10 23:00N 40°36' W 074°01'0 0.0
2018-Feb-10 22:30N 40°36' W 074°01'0 0.0
2018-Feb-10 22:00N 40°36' W 074°01'0 0.1
2018-Feb-10 21:27N 40°36' W 074°01'0 0.1
2018-Feb-10 21:00N 40°36' W 074°01'0 0.1
2018-Feb-10 20:30N 40°36' W 074°01'0 0.0
2018-Feb-10 20:00N 40°36' W 074°01'0 0.1
2018-Feb-10 19:30N 40°36' W 074°01'0 0.1
2018-Feb-10 18:57N 40°35' W 074°01'0 0.1
2018-Feb-10 18:30N 40°35' W 074°01'0 0.0
2018-Feb-10 18:00N 40°35' W 074°01'0 0.1
2018-Feb-10 17:30N 40°35' W 074°01'0 0.0
2018-Feb-10 17:00N 40°35' W 074°01'0 0.0
2018-Feb-10 16:30N 40°35' W 074°01'0 0.0
2018-Feb-10 16:00N 40°35' W 074°01'0 0.0
2018-Feb-10 15:30N 40°35' W 074°01'0 0.0
2018-Feb-10 15:00N 40°35' W 074°01'0 0.0
2018-Feb-10 14:30N 40°36' W 074°01'0 0.0
2018-Feb-10 14:00N 40°36' W 074°01'0 0.0
2018-Feb-10 13:30N 40°35' W 074°01'0 0.0
2018-Feb-10 12:54N 40°35' W 074°01'0 0.0
2018-Feb-10 12:30N 40°35' W 074°01'0 0.0
2018-Feb-10 12:00N 40°35' W 074°01'0 0.0
2018-Feb-10 11:30N 40°36' W 074°01'0 0.1
2018-Feb-10 11:00N 40°36' W 074°01'0 0.1
2018-Feb-10 10:30N 40°36' W 074°01'0 0.1
2018-Feb-10 10:00N 40°36' W 074°01'0 0.1
2018-Feb-10 09:30N 40°36' W 074°01'0 0.0
2018-Feb-10 09:00N 40°36' W 074°01'0 0.0
2018-Feb-10 08:30N 40°36' W 074°01'0 0.0
2018-Feb-10 08:00N 40°36' W 074°01'0 0.0
2018-Feb-10 07:30N 40°36' W 074°01'0 0.0
2018-Feb-10 07:00N 40°36' W 074°01'0 0.2
2018-Feb-10 06:27N 40°36' W 074°01'0 0.0
2018-Feb-10 06:00N 40°36' W 074°01'0 0.0
2018-Feb-10 05:30N 40°36' W 074°01'0 0.1
2018-Feb-10 04:54N 40°36' W 074°01'0 0.2
2018-Feb-10 04:30N 40°35' W 074°01'0 0.1
2018-Feb-10 04:00N 40°35' W 074°01'0 0.0
2018-Feb-10 03:30N 40°35' W 074°01'0 0.0
2018-Feb-10 02:57N 40°35' W 074°01'0 0.1
2018-Feb-10 02:30N 40°36' W 074°01'0 0.1
2018-Feb-10 02:00N 40°36' W 074°01'0 0.0
2018-Feb-10 01:30N 40°36' W 074°01'0 0.0
2018-Feb-10 01:00N 40°36' W 074°01'0 0.1
2018-Feb-10 00:30N 40°36' W 074°01'0 0.1
2018-Feb-09 23:54N 40°36' W 074°01'0 0.1
2018-Feb-09 23:30N 40°36' W 074°01'0 0.0
2018-Feb-09 23:00N 40°36' W 074°01'0 0.3
2018-Feb-09 22:45N 40°36' W 074°01'0 0.2
2018-Feb-09 22:30N 40°36' W 074°01'  

Dump ship's entire track history